Terminal Aerodrome Forecast
Issued by NWS Cleveland, OH

Home | Current Version | Previous Version | Text Only | Print | Product List | Glossary Off
Versions: 1 2 3 4 5 6 7 8 9 10 11 12 13 14 15 16 17 18 19 20

000
FTUS41 KCLE 242335
TAFCAK
TAF
KCAK 242335Z 2500/2524 12011KT 3SM -SHRA OVC012
     FM250400 09004KT 4SM -SHRA OVC007
     FM251500 35010KT 5SM BR OVC007
     FM252000 35012G18KT P6SM OVC012=

USA.gov is the U.S. government's official web portal to all federal, state and local government web resources and services.